createdAt,value
2022-07-28T00:01:07.425Z,97.70
2022-07-28T00:03:36.566Z,97.80
2022-07-28T00:06:05.269Z,97.90
2022-07-28T00:08:33.106Z,97.80
2022-07-28T00:11:00.878Z,97.80
2022-07-28T00:13:30.351Z,97.70
2022-07-28T00:15:58.251Z,97.70
2022-07-28T00:18:26.109Z,97.60
2022-07-28T00:20:55.272Z,97.60
2022-07-28T00:23:23.081Z,97.60
2022-07-28T00:26:06.546Z,97.50
2022-07-28T00:28:34.752Z,97.50
2022-07-28T00:31:05.660Z,97.50
2022-07-28T00:33:36.586Z,97.50
2022-07-28T00:36:07.061Z,97.50
2022-07-28T00:38:40.704Z,97.60
2022-07-28T00:41:11.884Z,97.60
2022-07-28T00:43:39.843Z,97.70
2022-07-28T00:46:08.227Z,97.70
2022-07-28T00:48:39.732Z,97.80
2022-07-28T00:51:10.038Z,97.80
2022-07-28T00:53:38.422Z,98.00
2022-07-28T00:56:07.664Z,98.10
2022-07-28T00:58:36.553Z,98.30
2022-07-28T01:01:05.077Z,98.50
2022-07-28T01:03:34.905Z,98.70
2022-07-28T01:06:07.472Z,98.80
2022-07-28T01:08:47.842Z,98.90
2022-07-28T01:11:24.478Z,99.00
2022-07-28T01:14:00.506Z,99.00
2022-07-28T01:16:29.221Z,99.00
2022-07-28T01:19:03.405Z,99.00
2022-07-28T01:21:36.043Z,99.00
2022-07-28T01:28:29.682Z,98.80
2022-07-28T01:31:03.422Z,98.60
2022-07-28T01:33:36.916Z,98.40
2022-07-28T01:36:10.434Z,98.30
2022-07-28T01:38:40.214Z,98.30
2022-07-28T01:41:13.807Z,98.50
2022-07-28T01:43:45.391Z,98.10
2022-07-28T01:46:16.529Z,98.00
2022-07-28T01:48:47.489Z,98.00
2022-07-28T01:51:16.890Z,97.90
2022-07-28T01:53:47.024Z,97.90
2022-07-28T01:56:16.542Z,97.90
2022-07-28T01:58:45.607Z,97.70
2022-07-28T02:01:16.486Z,97.70
2022-07-28T02:03:45.833Z,97.70
2022-07-28T02:06:14.902Z,97.70
2022-07-28T02:08:43.262Z,97.70
2022-07-28T02:11:28.838Z,97.70
2022-07-28T02:13:59.105Z,97.70
2022-07-28T02:16:29.784Z,97.60
2022-07-28T02:19:00.025Z,97.60
2022-07-28T02:21:31.097Z,97.50
2022-07-28T02:24:00.829Z,97.50
2022-07-28T02:26:31.438Z,97.50
2022-07-28T02:29:03.001Z,97.60
2022-07-28T02:31:41.126Z,97.60
2022-07-28T02:34:13.671Z,97.60
2022-07-28T02:36:46.320Z,97.70
2022-07-28T02:39:21.535Z,97.80
2022-07-28T02:41:56.431Z,97.80
2022-07-28T02:44:32.862Z,97.90
2022-07-28T02:47:06.272Z,97.80
2022-07-28T02:49:35.954Z,97.90
2022-07-28T02:52:06.134Z,97.90
2022-07-28T02:54:35.754Z,97.80
2022-07-28T02:57:04.362Z,97.90
2022-07-28T02:59:35.821Z,97.80
2022-07-28T03:02:05.534Z,97.80
2022-07-28T03:04:52.090Z,97.80
2022-07-28T03:07:20.247Z,97.80
2022-07-28T03:09:49.339Z,97.80
2022-07-28T03:12:17.304Z,97.80
2022-07-28T03:14:45.533Z,97.90
2022-07-28T03:17:14.832Z,97.90
2022-07-28T03:19:42.713Z,97.80
2022-07-28T03:22:10.761Z,97.80
2022-07-28T03:24:40.948Z,97.80
2022-07-28T03:27:16.071Z,97.80
2022-07-28T03:29:46.162Z,97.80
2022-07-28T03:32:15.450Z,98.20
2022-07-28T03:34:43.298Z,97.90
2022-07-28T03:37:14.413Z,97.80
2022-07-28T03:39:47.957Z,97.80
2022-07-28T03:42:17.971Z,97.80
2022-07-28T03:44:47.601Z,97.90
2022-07-28T03:47:21.118Z,97.80
2022-07-28T03:49:48.951Z,97.80
2022-07-28T03:52:16.965Z,97.90
2022-07-28T03:54:45.222Z,97.90
2022-07-28T03:57:13.216Z,98.00
2022-07-28T03:59:42.013Z,98.00
2022-07-28T04:02:09.889Z,98.10
2022-07-28T04:04:39.097Z,98.10
2022-07-28T04:07:07.117Z,98.10
2022-07-28T04:09:35.942Z,98.10
2022-07-28T04:12:03.759Z,98.00
2022-07-28T04:14:31.598Z,97.90
2022-07-28T04:16:59.455Z,98.00
2022-07-28T04:19:27.341Z,98.00
2022-07-28T04:21:56.597Z,98.10
2022-07-28T04:24:24.418Z,98.20
2022-07-28T04:26:52.266Z,98.10
2022-07-28T04:29:27.148Z,98.10
2022-07-28T04:31:55.426Z,98.10
2022-07-28T04:34:24.449Z,98.10
2022-07-28T04:36:53.014Z,98.10
2022-07-28T04:39:22.198Z,98.10
2022-07-28T04:41:50.854Z,98.00
2022-07-28T04:44:18.677Z,98.00
2022-07-28T04:46:46.619Z,97.90
2022-07-28T04:49:14.638Z,97.90
2022-07-28T04:51:45.249Z,97.90
2022-07-28T04:54:13.318Z,97.90
2022-07-28T04:56:44.745Z,97.90
2022-07-28T04:59:12.919Z,97.80
2022-07-28T05:01:44.080Z,97.90
2022-07-28T05:04:12.282Z,97.80
2022-07-28T05:06:40.403Z,97.80
2022-07-28T05:09:08.282Z,97.70
2022-07-28T05:11:36.114Z,97.70
2022-07-28T05:14:06.305Z,97.70
2022-07-28T05:16:34.227Z,97.70
2022-07-28T05:19:02.184Z,97.60
2022-07-28T05:21:30.321Z,97.60
2022-07-28T05:23:58.225Z,97.50
2022-07-28T05:26:26.802Z,97.50
2022-07-28T05:28:54.603Z,97.30
2022-07-28T05:31:23.802Z,97.30
2022-07-28T05:33:52.293Z,97.30
2022-07-28T05:36:20.242Z,97.30
2022-07-28T05:38:48.048Z,97.20
2022-07-28T05:41:15.984Z,97.30
2022-07-28T05:43:43.785Z,97.00
2022-07-28T05:46:11.661Z,96.60
2022-07-28T05:48:40.962Z,96.70
2022-07-28T05:51:08.800Z,96.20
2022-07-28T05:53:36.618Z,96.30
2022-07-28T05:56:04.681Z,96.40
2022-07-28T05:58:32.518Z,96.30
2022-07-28T06:01:01.911Z,96.20
2022-07-28T06:03:32.004Z,96.20
2022-07-28T06:06:15.817Z,96.20
2022-07-28T06:08:45.691Z,96.30
2022-07-28T06:11:22.300Z,96.40
2022-07-28T06:13:51.254Z,96.40
2022-07-28T06:16:20.541Z,96.20
2022-07-28T06:18:48.466Z,95.90
2022-07-28T06:21:17.677Z,95.80
2022-07-28T06:23:45.807Z,95.70
2022-07-28T06:26:13.642Z,95.60
2022-07-28T06:28:41.442Z,95.40
2022-07-28T06:31:09.378Z,95.30
2022-07-28T06:33:37.855Z,95.00
2022-07-28T06:36:05.893Z,94.80
2022-07-28T06:38:35.067Z,94.30
2022-07-28T06:41:02.947Z,94.20
2022-07-28T06:43:31.047Z,94.00
2022-07-28T06:45:58.910Z,94.00
2022-07-28T06:48:29.262Z,93.80
2022-07-28T06:50:59.474Z,93.60
2022-07-28T06:53:33.646Z,93.60
2022-07-28T06:56:04.645Z,93.50
2022-07-28T06:58:33.202Z,93.00
2022-07-28T07:01:02.493Z,92.90
2022-07-28T07:03:30.516Z,93.00
2022-07-28T07:05:58.320Z,92.70
2022-07-28T07:08:26.347Z,92.60
2022-07-28T07:10:54.988Z,92.50
2022-07-28T07:13:24.143Z,92.20
2022-07-28T07:15:52.022Z,92.20
2022-07-28T07:18:19.869Z,92.00
2022-07-28T07:20:48.922Z,91.90
2022-07-28T07:23:16.757Z,91.60
2022-07-28T07:25:44.563Z,91.40
2022-07-28T07:28:12.346Z,91.30
2022-07-28T07:30:41.506Z,91.40
2022-07-28T07:33:09.766Z,91.30
2022-07-28T07:35:38.770Z,91.40
2022-07-28T07:38:06.622Z,91.60
2022-07-28T07:40:34.547Z,91.70
2022-07-28T07:43:02.410Z,91.70
2022-07-28T07:45:30.202Z,91.60
2022-07-28T07:47:59.390Z,91.20
2022-07-28T07:50:27.212Z,91.10
2022-07-28T07:52:55.017Z,90.80
2022-07-28T07:55:23.064Z,90.30
2022-07-28T07:57:50.978Z,90.20
2022-07-28T08:00:28.673Z,89.60
2022-07-28T08:03:00.168Z,89.20
2022-07-28T08:05:35.941Z,89.20
2022-07-28T08:08:05.034Z,88.90
2022-07-28T08:10:33.105Z,87.90
2022-07-28T08:13:00.931Z,87.00
2022-07-28T08:15:28.819Z,87.80
2022-07-28T08:17:56.633Z,86.90
2022-07-28T08:20:25.797Z,86.30
2022-07-28T08:22:55.293Z,86.20
2022-07-28T08:25:24.176Z,85.90
2022-07-28T08:27:52.340Z,84.70
2022-07-28T08:30:22.618Z,84.90
2022-07-28T08:32:56.414Z,84.50
2022-07-28T08:35:35.320Z,84.10
2022-07-28T08:38:05.056Z,83.90
2022-07-28T08:40:33.286Z,83.20
2022-07-28T08:43:07.209Z,83.00
2022-07-28T08:45:37.304Z,83.40
2022-07-28T08:48:08.795Z,82.20
2022-07-28T08:50:39.894Z,82.00
2022-07-28T08:53:08.770Z,82.30
2022-07-28T08:55:37.730Z,81.10
2022-07-28T08:58:05.738Z,80.50
2022-07-28T09:00:33.708Z,80.60
2022-07-28T09:03:03.618Z,80.10
2022-07-28T09:05:31.942Z,79.20
2022-07-28T09:08:01.949Z,79.70
2022-07-28T09:10:29.909Z,78.40
2022-07-28T09:12:57.760Z,79.80
2022-07-28T09:15:25.587Z,79.70
2022-07-28T09:17:53.424Z,78.90
2022-07-28T09:20:21.568Z,77.40
2022-07-28T09:22:57.262Z,77.30
2022-07-28T09:25:26.822Z,75.80
2022-07-28T09:27:54.916Z,75.90
2022-07-28T09:30:30.818Z,75.60
2022-07-28T09:33:40.925Z,73.70
2022-07-28T09:36:04.468Z,74.00
2022-07-28T09:38:41.744Z,74.00
2022-07-28T09:41:10.958Z,73.70
2022-07-28T09:43:40.070Z,73.40
2022-07-28T09:46:10.122Z,73.30
2022-07-28T09:48:52.357Z,72.30
2022-07-28T09:51:21.560Z,71.90
2022-07-28T09:53:49.687Z,72.40
2022-07-28T09:56:19.469Z,70.30
2022-07-28T09:58:55.591Z,71.00
2022-07-28T10:01:26.706Z,70.60
2022-07-28T10:04:02.725Z,69.70
2022-07-28T10:06:32.804Z,70.00
2022-07-28T10:09:02.310Z,68.70
2022-07-28T10:11:31.942Z,68.90
2022-07-28T10:14:02.882Z,68.60
2022-07-28T10:16:32.924Z,68.20
2022-07-28T10:19:05.177Z,67.90
2022-07-28T10:21:37.267Z,67.50
2022-07-28T10:24:07.252Z,67.20
2022-07-28T10:26:42.389Z,68.00
2022-07-28T10:29:14.345Z,67.10
2022-07-28T10:31:49.400Z,66.90
2022-07-28T10:34:24.571Z,66.60
2022-07-28T10:36:55.294Z,66.50
2022-07-28T10:39:26.874Z,65.50
2022-07-28T10:41:58.055Z,65.10
2022-07-28T10:44:26.040Z,64.90
2022-07-28T10:46:54.412Z,65.70
2022-07-28T10:49:22.631Z,65.10
2022-07-28T10:52:15.190Z,64.70
2022-07-28T10:54:49.778Z,64.80
2022-07-28T10:57:19.698Z,63.20
2022-07-28T11:00:25.745Z,64.10
2022-07-28T11:02:58.908Z,63.80
2022-07-28T11:05:37.541Z,63.80
2022-07-28T11:08:08.354Z,63.40
2022-07-28T11:10:48.058Z,62.00
2022-07-28T11:13:35.584Z,62.00
2022-07-28T11:16:20.478Z,62.40
2022-07-28T11:19:08.130Z,62.50
2022-07-28T11:22:24.818Z,61.20
2022-07-28T11:25:19.714Z,62.30
2022-07-28T11:28:06.767Z,61.40
2022-07-28T11:30:55.529Z,61.40
2022-07-28T11:33:24.753Z,60.90
2022-07-28T11:35:57.668Z,60.70
2022-07-28T11:38:25.815Z,60.90
2022-07-28T11:40:55.983Z,60.60
2022-07-28T11:43:36.154Z,60.20
2022-07-28T11:46:25.289Z,60.30
2022-07-28T11:49:16.833Z,59.80
2022-07-28T11:52:24.319Z,60.30
2022-07-28T11:54:57.526Z,60.60
2022-07-28T11:57:27.703Z,60.30
2022-07-28T12:00:03.603Z,60.50
2022-07-28T12:02:34.137Z,60.30
2022-07-28T12:05:09.247Z,59.80
2022-07-28T12:07:44.003Z,59.80
2022-07-28T12:10:52.222Z,59.60
2022-07-28T12:13:14.824Z,59.70
2022-07-28T12:15:50.629Z,59.60
2022-07-28T12:18:19.974Z,59.20
2022-07-28T12:20:49.826Z,59.00
2022-07-28T12:23:17.636Z,58.50
2022-07-28T12:25:47.048Z,59.30
2022-07-28T12:28:19.980Z,59.30
2022-07-28T12:30:49.259Z,59.50
2022-07-28T12:33:23.858Z,59.50
2022-07-28T12:35:57.825Z,59.30
2022-07-28T12:38:27.684Z,58.70
2022-07-28T12:40:55.697Z,58.70
2022-07-28T12:43:26.197Z,58.60
2022-07-28T12:45:54.473Z,58.40
2022-07-28T12:48:23.778Z,58.50
2022-07-28T12:50:51.729Z,58.40
2022-07-28T12:53:22.607Z,57.50
2022-07-28T12:56:00.063Z,57.60
2022-07-28T12:58:28.967Z,57.60
2022-07-28T13:00:57.099Z,56.90
2022-07-28T13:03:28.193Z,56.70
2022-07-28T13:06:04.089Z,57.20
2022-07-28T13:08:44.542Z,57.60
2022-07-28T13:11:42.152Z,57.40
2022-07-28T13:14:02.612Z,57.60
2022-07-28T13:16:30.734Z,57.50
2022-07-28T13:19:04.369Z,57.40
2022-07-28T13:21:41.221Z,57.20
2022-07-28T13:24:26.953Z,57.00
2022-07-28T13:26:54.776Z,57.50
2022-07-28T13:29:22.765Z,56.60
2022-07-28T13:31:52.066Z,57.00
2022-07-28T13:34:21.643Z,57.10
2022-07-28T13:36:49.478Z,57.30
2022-07-28T13:39:17.355Z,57.20
2022-07-28T13:41:57.276Z,56.90
2022-07-28T13:44:25.928Z,57.60
2022-07-28T13:46:55.313Z,58.00
2022-07-28T13:49:24.875Z,57.40
2022-07-28T13:51:53.216Z,57.30
2022-07-28T13:54:21.266Z,56.80
2022-07-28T13:56:55.465Z,55.70
2022-07-28T13:59:23.991Z,56.30
2022-07-28T14:01:55.934Z,56.30
2022-07-28T14:04:26.586Z,55.50
2022-07-28T14:06:54.701Z,56.20
2022-07-28T14:09:22.949Z,56.20
2022-07-28T14:11:53.726Z,56.50
2022-07-28T14:14:24.559Z,56.90
2022-07-28T14:16:54.541Z,57.00
2022-07-28T14:19:37.802Z,56.60
2022-07-28T14:22:13.365Z,56.60
2022-07-28T14:24:42.052Z,56.80
2022-07-28T14:27:10.543Z,57.20
2022-07-28T14:29:38.574Z,56.70
2022-07-28T14:32:06.904Z,56.70
2022-07-28T14:34:34.749Z,56.40
2022-07-28T14:37:05.652Z,56.60
2022-07-28T14:39:37.982Z,57.10
2022-07-28T14:42:06.293Z,57.40
2022-07-28T14:44:34.665Z,56.90
2022-07-28T14:47:02.614Z,57.40
2022-07-28T14:49:30.557Z,56.60
2022-07-28T14:51:59.197Z,56.80
2022-07-28T14:54:27.593Z,57.00
2022-07-28T14:56:57.126Z,57.30
2022-07-28T14:59:24.969Z,57.50
2022-07-28T15:01:52.898Z,57.60
2022-07-28T15:04:21.066Z,57.50
2022-07-28T15:06:48.991Z,57.50
2022-07-28T15:09:16.791Z,57.40
2022-07-28T15:11:47.077Z,57.60
2022-07-28T15:14:17.091Z,57.50
2022-07-28T15:16:49.338Z,57.60
2022-07-28T15:19:17.723Z,57.60
2022-07-28T15:21:47.202Z,57.80
2022-07-28T15:24:15.855Z,57.50
2022-07-28T15:26:44.149Z,57.60
2022-07-28T15:29:11.970Z,57.40
2022-07-28T15:31:42.281Z,57.50
2022-07-28T15:34:12.100Z,57.30
2022-07-28T15:36:41.230Z,57.50
2022-07-28T15:39:13.810Z,57.30
2022-07-28T15:41:41.990Z,57.10
2022-07-28T15:44:10.321Z,57.00
2022-07-28T15:46:38.253Z,56.90
2022-07-28T15:49:09.750Z,56.90
2022-07-28T15:51:38.682Z,57.30
2022-07-28T15:54:07.205Z,57.40
2022-07-28T15:56:36.334Z,57.40
2022-07-28T15:59:06.230Z,57.50
2022-07-28T16:01:34.283Z,57.50
2022-07-28T16:04:02.445Z,57.10
2022-07-28T16:06:46.181Z,57.00
2022-07-28T16:09:14.042Z,57.10
2022-07-28T16:11:42.404Z,57.10
2022-07-28T16:14:10.237Z,57.30
2022-07-28T16:16:38.386Z,57.70
2022-07-28T16:19:20.117Z,58.20
2022-07-28T16:21:58.388Z,58.40
2022-07-28T16:24:26.339Z,58.50
2022-07-28T16:26:54.174Z,58.60
2022-07-28T16:29:22.029Z,59.10
2022-07-28T16:31:49.860Z,58.90
2022-07-28T16:34:18.046Z,58.60
2022-07-28T16:36:46.266Z,59.20
2022-07-28T16:39:15.606Z,58.10
2022-07-28T16:41:46.793Z,57.60
2022-07-28T16:44:15.926Z,57.70
2022-07-28T16:46:44.180Z,57.40
2022-07-28T16:49:12.122Z,57.60
2022-07-28T16:51:39.965Z,57.90
2022-07-28T16:54:07.796Z,57.50
2022-07-28T16:56:36.946Z,57.40
2022-07-28T16:59:05.712Z,57.60
2022-07-28T17:01:33.542Z,57.60
2022-07-28T17:04:02.919Z,57.80
2022-07-28T17:06:30.980Z,57.90
2022-07-28T17:08:58.797Z,57.90
2022-07-28T17:11:26.594Z,57.90
2022-07-28T17:13:55.741Z,57.60
2022-07-28T17:16:23.644Z,57.80
2022-07-28T17:18:51.498Z,57.60
2022-07-28T17:21:19.336Z,57.80
2022-07-28T17:23:47.232Z,57.90
2022-07-28T17:27:32.143Z,58.00
2022-07-28T17:29:05.344Z,58.20
2022-07-28T17:31:33.642Z,58.30
2022-07-28T17:34:01.826Z,58.50
2022-07-28T17:36:33.781Z,58.60
2022-07-28T17:39:01.969Z,58.50
2022-07-28T17:41:29.998Z,58.50
2022-07-28T17:43:57.834Z,58.60
2022-07-28T17:46:27.062Z,58.80
2022-07-28T17:48:55.130Z,58.80
2022-07-28T17:51:23.021Z,59.00
2022-07-28T17:53:51.193Z,59.10
2022-07-28T17:56:19.129Z,59.10
2022-07-28T17:58:48.895Z,59.00
2022-07-28T18:01:16.846Z,59.00
2022-07-28T18:03:56.917Z,59.20
2022-07-28T18:06:29.199Z,59.50
2022-07-28T18:08:57.042Z,59.70
2022-07-28T18:11:26.664Z,59.90
2022-07-28T18:14:04.125Z,60.20
2022-07-28T18:16:33.969Z,61.20
2022-07-28T18:19:03.739Z,61.00
2022-07-28T18:21:31.569Z,61.80
2022-07-28T18:24:03.037Z,62.30
2022-07-28T18:26:30.985Z,62.90
2022-07-28T18:28:58.781Z,63.40
2022-07-28T18:31:27.904Z,64.30
2022-07-28T18:33:55.789Z,64.70
2022-07-28T18:36:24.942Z,65.00
2022-07-28T18:38:52.740Z,65.30
2022-07-28T18:41:20.557Z,66.20
2022-07-28T18:43:48.378Z,66.50
2022-07-28T18:46:16.269Z,67.00
2022-07-28T18:48:44.196Z,67.10
2022-07-28T18:51:15.944Z,68.10
2022-07-28T18:53:45.190Z,68.50
2022-07-28T18:56:13.528Z,68.50
2022-07-28T18:58:41.345Z,69.30
2022-07-28T19:01:10.167Z,69.80
2022-07-28T19:03:41.198Z,70.10
2022-07-28T19:06:09.054Z,70.50
2022-07-28T19:08:36.850Z,70.80
2022-07-28T19:11:06.001Z,71.70
2022-07-28T19:13:33.803Z,71.60
2022-07-28T19:16:01.645Z,72.30
2022-07-28T19:18:29.517Z,72.20
2022-07-28T19:20:57.348Z,72.20
2022-07-28T19:23:25.269Z,72.50
2022-07-28T19:25:53.421Z,72.30
2022-07-28T19:28:22.803Z,72.30
2022-07-28T19:30:50.799Z,72.50
2022-07-28T19:33:19.508Z,72.60
2022-07-28T19:35:47.504Z,72.60
2022-07-28T19:38:15.327Z,73.20
2022-07-28T19:40:43.427Z,73.50
2022-07-28T19:43:11.367Z,73.60
2022-07-28T19:45:41.104Z,74.20
2022-07-28T19:48:09.109Z,74.30
2022-07-28T19:50:37.068Z,74.50
2022-07-28T19:53:05.294Z,75.30
2022-07-28T19:55:36.209Z,75.60
2022-07-28T19:58:04.443Z,76.00
2022-07-28T20:00:32.253Z,76.60
2022-07-28T20:03:01.504Z,77.20
2022-07-28T20:05:29.430Z,77.90
2022-07-28T20:07:57.245Z,77.70
2022-07-28T20:10:25.070Z,77.40
2022-07-28T20:12:52.871Z,77.50
2022-07-28T20:15:20.698Z,77.60
2022-07-28T20:17:49.369Z,77.70
2022-07-28T20:20:18.684Z,78.00
2022-07-28T20:22:48.251Z,78.20
2022-07-28T20:25:16.444Z,78.40
2022-07-28T20:27:44.374Z,79.00
2022-07-28T20:30:13.803Z,79.50
2022-07-28T20:32:44.016Z,79.90
2022-07-28T20:35:12.508Z,80.40
2022-07-28T20:37:41.657Z,81.10
2022-07-28T20:40:10.866Z,81.30
2022-07-28T20:42:38.693Z,81.90
2022-07-28T20:45:07.522Z,82.70
2022-07-28T20:47:35.840Z,83.20
2022-07-28T20:50:05.146Z,83.10
2022-07-28T20:52:33.858Z,83.20
2022-07-28T20:55:03.050Z,83.80
2022-07-28T20:57:31.034Z,83.90
2022-07-28T20:59:58.870Z,84.10
2022-07-28T21:02:26.706Z,83.80
2022-07-28T21:04:54.634Z,83.50
2022-07-28T21:08:00.483Z,83.30
2022-07-28T21:10:12.604Z,83.20
2022-07-28T21:12:40.517Z,82.80
2022-07-28T21:15:10.076Z,82.80
2022-07-28T21:17:37.904Z,82.70
2022-07-28T21:20:06.329Z,82.70
2022-07-28T21:22:34.232Z,82.80
2022-07-28T21:25:02.021Z,82.90
2022-07-28T21:27:52.594Z,82.80
2022-07-28T21:30:19.558Z,82.80
2022-07-28T21:32:55.739Z,82.80
2022-07-28T21:35:23.661Z,83.10
2022-07-28T21:37:51.522Z,83.20
2022-07-28T21:40:19.376Z,83.20
2022-07-28T21:42:48.669Z,83.10
2022-07-28T21:45:16.538Z,83.30
2022-07-28T21:47:44.397Z,83.70
2022-07-28T21:50:12.748Z,83.70
2022-07-28T21:52:40.593Z,83.60
2022-07-28T21:55:10.869Z,83.10
2022-07-28T21:57:38.789Z,82.80
2022-07-28T22:00:11.697Z,82.90
2022-07-28T22:02:40.746Z,83.00
2022-07-28T22:05:09.581Z,82.50
2022-07-28T22:07:37.517Z,82.20
2022-07-28T22:10:06.120Z,81.70
2022-07-28T22:12:33.961Z,81.00
2022-07-28T22:15:01.802Z,80.60
2022-07-28T22:17:30.978Z,80.10
2022-07-28T22:19:58.819Z,79.70
2022-07-28T22:22:26.616Z,79.30
2022-07-28T22:24:54.479Z,78.90
2022-07-28T22:27:22.256Z,78.50
2022-07-28T22:29:51.941Z,77.90
2022-07-28T22:32:28.585Z,77.70
2022-07-28T22:34:58.519Z,77.70
2022-07-28T22:37:26.721Z,77.50
2022-07-28T22:39:54.626Z,77.50
2022-07-28T22:42:22.461Z,77.50
2022-07-28T22:44:50.301Z,77.40
2022-07-28T22:47:18.161Z,77.30
2022-07-28T22:49:45.973Z,77.20
2022-07-28T22:52:15.187Z,77.10
2022-07-28T22:54:43.025Z,76.90
2022-07-28T22:57:11.610Z,77.00
2022-07-28T22:59:40.187Z,77.10
2022-07-28T23:02:11.086Z,77.20
2022-07-28T23:04:39.821Z,77.20
2022-07-28T23:07:12.237Z,77.80
2022-07-28T23:09:42.932Z,77.00
2022-07-28T23:12:11.753Z,76.90
2022-07-28T23:14:39.695Z,76.70
2022-07-28T23:17:07.501Z,76.60
2022-07-28T23:19:35.317Z,76.70
2022-07-28T23:22:03.113Z,76.80
2022-07-28T23:24:30.950Z,76.70
2022-07-28T23:27:00.945Z,76.80
2022-07-28T23:29:28.789Z,76.60
2022-07-28T23:31:56.647Z,76.30
2022-07-28T23:34:24.517Z,76.10
2022-07-28T23:36:52.329Z,76.00
2022-07-28T23:39:20.146Z,76.00
2022-07-28T23:41:48.938Z,76.00
2022-07-28T23:44:18.531Z,75.70
2022-07-28T23:46:46.702Z,75.70
2022-07-28T23:49:14.610Z,75.60
2022-07-28T23:51:47.710Z,75.40
2022-07-28T23:54:16.993Z,75.50
2022-07-28T23:56:45.405Z,75.50
2022-07-28T23:59:14.367Z,75.30
